createdAt,value
2023-03-18T00:00:21.092Z,99.90
2023-03-18T00:02:22.906Z,99.90
2023-03-18T00:04:25.013Z,99.90
2023-03-18T00:06:27.199Z,99.90
2023-03-18T00:08:28.962Z,99.90
2023-03-18T00:10:31.562Z,99.90
2023-03-18T00:12:33.474Z,99.90
2023-03-18T00:14:36.077Z,99.90
2023-03-18T00:16:39.956Z,99.90
2023-03-18T00:18:42.370Z,99.90
2023-03-18T00:20:45.279Z,99.90
2023-03-18T00:22:46.985Z,99.90
2023-03-18T00:24:49.122Z,99.90
2023-03-18T00:26:50.863Z,99.90
2023-03-18T00:28:53.132Z,99.90
2023-03-18T00:30:55.969Z,99.90
2023-03-18T00:32:57.999Z,99.90
2023-03-18T00:35:01.142Z,99.90
2023-03-18T00:37:03.669Z,99.90
2023-03-18T00:39:05.626Z,99.90
2023-03-18T00:41:15.703Z,99.90
2023-03-18T00:43:17.430Z,99.90
2023-03-18T00:45:19.212Z,99.90
2023-03-18T00:47:21.330Z,99.90
2023-03-18T00:49:22.958Z,99.90
2023-03-18T00:51:26.688Z,99.90
2023-03-18T00:53:28.439Z,99.90
2023-03-18T00:55:30.065Z,99.90
2023-03-18T00:57:31.696Z,99.90
2023-03-18T00:59:33.281Z,99.90
2023-03-18T01:01:35.403Z,99.90
2023-03-18T01:03:37.071Z,99.90
2023-03-18T01:05:39.657Z,99.90
2023-03-18T01:07:41.530Z,99.90
2023-03-18T01:09:43.710Z,99.90
2023-03-18T01:11:45.507Z,99.90
2023-03-18T01:13:47.543Z,99.90
2023-03-18T01:15:50.147Z,99.90
2023-03-18T01:17:54.291Z,99.90
2023-03-18T01:19:56.223Z,99.90
2023-03-18T01:21:57.904Z,99.90
2023-03-18T01:24:00.578Z,99.90
2023-03-18T01:26:03.202Z,99.90
2023-03-18T01:28:05.337Z,99.90
2023-03-18T01:30:09.131Z,99.90
2023-03-18T01:32:10.897Z,99.90
2023-03-18T01:34:14.045Z,99.90
2023-03-18T01:36:15.813Z,99.90
2023-03-18T01:38:17.453Z,99.90
2023-03-18T01:40:20.862Z,99.90
2023-03-18T01:42:22.721Z,99.90
2023-03-18T01:44:25.578Z,99.90
2023-03-18T01:46:40.888Z,99.90
2023-03-18T01:48:43.013Z,99.90
2023-03-18T01:50:45.785Z,99.90
2023-03-18T01:52:48.908Z,99.90
2023-03-18T01:54:56.550Z,99.90
2023-03-18T01:56:58.810Z,99.90
2023-03-18T01:59:00.633Z,99.90
2023-03-18T02:01:05.060Z,99.90
2023-03-18T02:03:07.403Z,99.90
2023-03-18T02:05:11.316Z,99.90
2023-03-18T02:07:31.838Z,99.90
2023-03-18T02:09:33.655Z,99.90
2023-03-18T02:11:40.576Z,99.90
2023-03-18T02:13:43.276Z,99.90
2023-03-18T02:15:47.269Z,99.90
2023-03-18T02:17:54.453Z,99.90
2023-03-18T02:20:14.932Z,99.90
2023-03-18T02:22:17.133Z,99.90
2023-03-18T02:24:28.812Z,99.90
2023-03-18T02:26:37.109Z,99.90
2023-03-18T02:28:39.623Z,99.90
2023-03-18T02:30:47.637Z,99.90
2023-03-18T02:32:50.859Z,99.90
2023-03-18T02:34:52.781Z,99.90
2023-03-18T02:36:54.800Z,99.90
2023-03-18T02:38:57.185Z,99.90
2023-03-18T02:40:58.897Z,99.90
2023-03-18T02:43:19.267Z,99.90
2023-03-18T02:45:43.603Z,99.90
2023-03-18T02:47:47.241Z,99.90
2023-03-18T02:49:49.577Z,99.90
2023-03-18T02:51:51.738Z,99.90
2023-03-18T02:53:58.775Z,99.90
2023-03-18T02:56:00.716Z,99.90
2023-03-18T02:58:02.370Z,99.90
2023-03-18T03:00:05.740Z,99.90
2023-03-18T03:02:07.774Z,99.90
2023-03-18T03:04:10.469Z,99.90
2023-03-18T03:06:13.217Z,99.90
2023-03-18T03:08:15.301Z,99.90
2023-03-18T03:10:17.229Z,99.90
2023-03-18T03:12:20.375Z,99.90
2023-03-18T03:14:22.282Z,99.90
2023-03-18T03:16:24.949Z,99.90
2023-03-18T03:18:26.711Z,99.90
2023-03-18T03:20:29.531Z,99.90
2023-03-18T03:22:31.259Z,99.90
2023-03-18T03:24:32.870Z,99.90
2023-03-18T03:26:35.014Z,99.90
2023-03-18T03:28:36.597Z,99.90
2023-03-18T03:30:38.459Z,99.90
2023-03-18T03:32:40.475Z,99.90
2023-03-18T03:34:43.341Z,99.90
2023-03-18T03:36:44.965Z,99.90
2023-03-18T03:38:46.607Z,99.90
2023-03-18T03:40:48.552Z,99.90
2023-03-18T03:42:50.994Z,99.90
2023-03-18T03:44:52.680Z,99.90
2023-03-18T03:46:54.317Z,99.90
2023-03-18T03:48:56.035Z,99.90
2023-03-18T03:50:57.758Z,99.90
2023-03-18T03:52:59.470Z,99.90
2023-03-18T03:55:01.142Z,99.90
2023-03-18T03:57:02.764Z,99.90
2023-03-18T03:59:04.880Z,99.90
2023-03-18T04:01:08.626Z,99.90
2023-03-18T04:03:10.607Z,99.90
2023-03-18T04:05:13.026Z,99.90
2023-03-18T04:07:15.408Z,99.90
2023-03-18T04:09:17.241Z,99.90
2023-03-18T04:11:18.872Z,99.90
2023-03-18T04:13:20.525Z,99.90
2023-03-18T04:15:22.274Z,99.90
2023-03-18T04:17:23.941Z,99.90
2023-03-18T04:19:27.266Z,99.90
2023-03-18T04:21:28.914Z,99.90
2023-03-18T04:23:33.065Z,99.90
2023-03-18T04:25:35.319Z,99.90
2023-03-18T04:27:38.045Z,99.90
2023-03-18T04:29:39.808Z,99.90
2023-03-18T04:31:41.641Z,99.90
2023-03-18T04:33:44.735Z,99.90
2023-03-18T04:35:47.604Z,99.90
2023-03-18T04:37:49.842Z,99.90
2023-03-18T04:39:53.570Z,99.90
2023-03-18T04:41:56.991Z,99.90
2023-03-18T04:43:58.657Z,99.90
2023-03-18T04:46:00.300Z,99.90
2023-03-18T04:48:01.957Z,99.90
2023-03-18T04:50:04.546Z,99.90
2023-03-18T04:52:07.403Z,99.90
2023-03-18T04:54:09.041Z,99.90
2023-03-18T04:56:10.936Z,99.90
2023-03-18T04:58:12.740Z,99.90
2023-03-18T05:00:17.260Z,99.90
2023-03-18T05:02:19.827Z,99.90
2023-03-18T05:04:22.033Z,99.90
2023-03-18T05:06:26.787Z,99.90
2023-03-18T05:08:28.451Z,99.90
2023-03-18T05:10:31.367Z,99.90
2023-03-18T05:12:33.529Z,99.90
2023-03-18T05:14:35.118Z,99.90
2023-03-18T05:16:37.093Z,99.90
2023-03-18T05:18:38.990Z,99.90
2023-03-18T05:20:40.699Z,99.90
2023-03-18T05:22:42.805Z,99.90
2023-03-18T05:24:46.048Z,99.90
2023-03-18T05:26:48.202Z,99.90
2023-03-18T05:28:49.857Z,99.90
2023-03-18T05:30:52.315Z,99.90
2023-03-18T05:32:53.968Z,99.90
2023-03-18T05:34:55.783Z,99.90
2023-03-18T05:36:57.646Z,99.90
2023-03-18T05:38:59.365Z,99.90
2023-03-18T05:41:01.159Z,99.90
2023-03-18T05:43:04.028Z,99.90
2023-03-18T05:45:07.334Z,99.90
2023-03-18T05:47:09.761Z,99.90
2023-03-18T05:49:11.725Z,99.90
2023-03-18T05:51:13.854Z,99.90
2023-03-18T05:53:16.696Z,99.90
2023-03-18T05:55:18.329Z,99.90
2023-03-18T05:57:21.001Z,99.90
2023-03-18T05:59:23.759Z,99.90
2023-03-18T06:01:26.120Z,99.90
2023-03-18T06:03:29.605Z,99.90
2023-03-18T06:05:31.679Z,99.90
2023-03-18T06:07:34.637Z,99.90
2023-03-18T06:09:36.839Z,99.90
2023-03-18T06:11:40.019Z,99.90
2023-03-18T06:13:42.144Z,99.90
2023-03-18T06:15:43.890Z,99.90
2023-03-18T06:17:45.649Z,99.90
2023-03-18T06:19:48.164Z,99.90
2023-03-18T06:21:49.864Z,99.90
2023-03-18T06:23:51.457Z,99.90
2023-03-18T06:25:53.103Z,99.90
2023-03-18T06:27:54.774Z,99.90
2023-03-18T06:29:56.611Z,99.90
2023-03-18T06:31:59.372Z,99.90
2023-03-18T06:34:01.577Z,99.90
2023-03-18T06:36:04.454Z,99.90
2023-03-18T06:38:06.109Z,99.90
2023-03-18T06:40:08.610Z,99.90
2023-03-18T06:42:10.904Z,99.90
2023-03-18T06:44:13.280Z,99.90
2023-03-18T06:46:15.270Z,99.90
2023-03-18T06:48:17.706Z,99.90
2023-03-18T06:50:20.633Z,99.90
2023-03-18T06:52:23.302Z,99.90
2023-03-18T06:54:26.192Z,99.90
2023-03-18T06:56:27.843Z,99.90
2023-03-18T06:58:29.521Z,99.90
2023-03-18T07:00:34.287Z,99.90
2023-03-18T07:02:39.444Z,99.90
2023-03-18T07:04:44.118Z,99.90
2023-03-18T07:06:45.735Z,99.90
2023-03-18T07:08:47.435Z,99.90
2023-03-18T07:10:52.777Z,99.90
2023-03-18T07:12:54.656Z,99.90
2023-03-18T07:14:56.347Z,99.90
2023-03-18T07:16:58.200Z,99.90
2023-03-18T07:19:00.259Z,99.90
2023-03-18T07:21:01.844Z,99.90
2023-03-18T07:23:03.960Z,99.90
2023-03-18T07:25:05.865Z,99.90
2023-03-18T07:27:07.554Z,99.90
2023-03-18T07:29:09.520Z,99.90
2023-03-18T07:31:11.312Z,99.90
2023-03-18T07:33:13.162Z,99.90
2023-03-18T07:35:15.725Z,99.90
2023-03-18T07:37:17.796Z,99.90
2023-03-18T07:39:22.305Z,99.90
2023-03-18T07:41:23.913Z,99.90
2023-03-18T07:43:26.021Z,99.90
2023-03-18T07:45:28.445Z,99.90
2023-03-18T07:47:30.540Z,99.90
2023-03-18T07:49:32.264Z,99.90
2023-03-18T07:51:34.002Z,99.90
2023-03-18T07:53:35.967Z,99.90
2023-03-18T07:55:37.960Z,99.90
2023-03-18T07:57:39.577Z,99.90
2023-03-18T07:59:41.625Z,99.90
2023-03-18T08:01:43.498Z,99.90
2023-03-18T08:03:46.534Z,99.90
2023-03-18T08:05:48.326Z,99.90
2023-03-18T08:07:49.973Z,99.90
2023-03-18T08:09:51.689Z,99.90
2023-03-18T08:11:54.002Z,99.90
2023-03-18T08:13:55.673Z,99.90
2023-03-18T08:15:57.562Z,99.90
2023-03-18T08:17:59.330Z,99.90
2023-03-18T08:20:01.057Z,99.90
2023-03-18T08:22:02.689Z,99.90
2023-03-18T08:24:04.565Z,99.90
2023-03-18T08:26:06.284Z,99.90
2023-03-18T08:28:08.046Z,99.90
2023-03-18T08:30:10.305Z,99.90
2023-03-18T08:32:13.446Z,99.90
2023-03-18T08:34:15.359Z,99.90
2023-03-18T08:36:17.204Z,99.90
2023-03-18T08:38:19.286Z,99.90
2023-03-18T08:40:20.977Z,99.90
2023-03-18T08:42:22.874Z,99.90
2023-03-18T08:44:24.699Z,99.90
2023-03-18T08:46:26.614Z,99.90
2023-03-18T08:48:28.259Z,99.90
2023-03-18T08:50:29.873Z,99.90
2023-03-18T08:52:32.295Z,99.90
2023-03-18T08:54:33.962Z,99.90
2023-03-18T08:56:35.605Z,99.90
2023-03-18T08:58:37.919Z,99.90
2023-03-18T09:00:40.551Z,99.90
2023-03-18T09:02:42.711Z,99.90
2023-03-18T09:04:44.771Z,99.90
2023-03-18T09:06:48.615Z,99.90
2023-03-18T09:08:50.330Z,99.90
2023-03-18T09:10:53.769Z,99.90
2023-03-18T09:12:55.724Z,99.90
2023-03-18T09:14:57.520Z,99.90
2023-03-18T09:16:59.790Z,99.90
2023-03-18T09:19:01.407Z,99.90
2023-03-18T09:21:03.310Z,99.90
2023-03-18T09:23:05.007Z,99.90
2023-03-18T09:25:07.403Z,99.90
2023-03-18T09:27:09.194Z,99.90
2023-03-18T09:29:11.268Z,99.90
2023-03-18T09:31:13.616Z,99.90
2023-03-18T09:33:16.116Z,99.90
2023-03-18T09:35:18.275Z,99.90
2023-03-18T09:37:20.153Z,99.90
2023-03-18T09:39:21.981Z,99.90
2023-03-18T09:41:42.089Z,99.90
2023-03-18T09:43:52.912Z,99.90
2023-03-18T09:46:03.766Z,99.90
2023-03-18T09:48:22.269Z,99.90
2023-03-18T09:50:33.483Z,99.90
2023-03-18T09:52:43.739Z,99.90
2023-03-18T09:55:08.386Z,99.90
2023-03-18T09:57:17.477Z,99.90
2023-03-18T09:59:22.653Z,99.90
2023-03-18T10:01:26.005Z,99.90
2023-03-18T10:03:31.426Z,99.90
2023-03-18T10:05:40.536Z,99.90
2023-03-18T10:07:43.072Z,99.90
2023-03-18T10:09:46.818Z,99.90
2023-03-18T10:11:53.591Z,99.90
2023-03-18T10:14:18.413Z,99.90
2023-03-18T10:16:25.926Z,99.90
2023-03-18T10:18:29.486Z,99.90
2023-03-18T10:20:46.486Z,99.90
2023-03-18T10:22:52.762Z,99.90
2023-03-18T10:24:59.647Z,99.90
2023-03-18T10:27:24.734Z,99.90
2023-03-18T10:30:03.771Z,99.90
2023-03-18T10:32:22.044Z,99.90
2023-03-18T10:34:28.081Z,99.90
2023-03-18T10:36:35.309Z,99.90
2023-03-18T10:38:39.666Z,99.90
2023-03-18T10:40:42.485Z,99.90
2023-03-18T10:42:45.519Z,99.90
2023-03-18T10:44:47.896Z,99.90
2023-03-18T10:46:55.841Z,99.90
2023-03-18T10:49:07.910Z,99.90
2023-03-18T10:51:13.114Z,99.90
2023-03-18T10:53:19.215Z,99.90
2023-03-18T10:55:23.797Z,99.90
2023-03-18T10:57:25.479Z,99.90
2023-03-18T10:59:28.544Z,99.90
2023-03-18T11:01:30.246Z,99.90
2023-03-18T11:03:34.084Z,99.90
2023-03-18T11:05:36.236Z,99.90
2023-03-18T11:07:54.938Z,99.90
2023-03-18T11:10:10.702Z,99.90
2023-03-18T11:12:23.609Z,99.90
2023-03-18T11:14:29.697Z,99.90
2023-03-18T11:16:38.130Z,99.90
2023-03-18T11:18:44.089Z,99.90
2023-03-18T11:20:49.325Z,99.90
2023-03-18T11:22:52.519Z,99.90
2023-03-18T11:25:12.766Z,99.90
2023-03-18T11:27:14.428Z,99.90
2023-03-18T11:29:18.619Z,99.90
2023-03-18T11:31:20.287Z,98.30
2023-03-18T11:33:27.538Z,99.70
2023-03-18T11:35:46.339Z,99.90
2023-03-18T11:37:48.157Z,97.00
2023-03-18T11:39:54.635Z,94.40
2023-03-18T11:42:01.505Z,93.70
2023-03-18T11:44:07.404Z,94.20
2023-03-18T11:46:10.550Z,95.20
2023-03-18T11:48:14.772Z,89.00
2023-03-18T11:50:19.723Z,89.50
2023-03-18T11:52:27.525Z,90.40
2023-03-18T11:54:52.506Z,87.30
2023-03-18T11:57:03.331Z,82.60
2023-03-18T11:59:17.498Z,88.60
2023-03-18T12:01:21.915Z,81.30
2023-03-18T12:03:41.881Z,77.60
2023-03-18T12:06:05.223Z,81.40
2023-03-18T12:08:28.101Z,69.90
2023-03-18T12:10:34.623Z,61.80
2023-03-18T12:12:45.766Z,62.50
2023-03-18T12:14:54.744Z,59.10
2023-03-18T12:17:14.135Z,58.20
2023-03-18T12:19:35.165Z,55.60
2023-03-18T12:21:55.408Z,54.60
2023-03-18T12:24:09.062Z,53.80
2023-03-18T12:26:14.164Z,53.20
2023-03-18T12:28:26.615Z,55.30
2023-03-18T12:30:28.312Z,52.40
2023-03-18T12:32:50.752Z,54.60
2023-03-18T12:35:20.691Z,51.90
2023-03-18T12:37:31.904Z,50.90
2023-03-18T12:39:43.011Z,52.00
2023-03-18T12:42:09.419Z,57.00
2023-03-18T12:44:11.762Z,49.60
2023-03-18T12:46:34.213Z,53.30
2023-03-18T12:48:44.434Z,51.00
2023-03-18T12:50:49.137Z,49.90
2023-03-18T12:52:54.888Z,54.50
2023-03-18T12:55:01.470Z,51.20
2023-03-18T12:57:06.105Z,50.50
2023-03-18T12:59:37.396Z,53.30
2023-03-18T13:02:03.736Z,54.10
2023-03-18T13:04:07.789Z,51.20
2023-03-18T13:06:15.689Z,48.80
2023-03-18T13:08:35.942Z,49.50
2023-03-18T13:10:37.759Z,51.60
2023-03-18T13:12:40.601Z,52.20
2023-03-18T13:14:58.571Z,48.40
2023-03-18T13:17:00.965Z,48.20
2023-03-18T13:19:04.615Z,49.20
2023-03-18T13:21:07.634Z,51.90
2023-03-18T13:23:09.922Z,51.10
2023-03-18T13:25:18.444Z,51.80
2023-03-18T13:27:23.372Z,52.80
2023-03-18T13:29:25.198Z,52.10
2023-03-18T13:31:46.550Z,51.30
2023-03-18T13:33:50.873Z,51.20
2023-03-18T13:36:11.474Z,50.10
2023-03-18T13:38:16.771Z,51.50
2023-03-18T13:40:39.965Z,48.00
2023-03-18T13:42:44.432Z,49.30
2023-03-18T13:45:05.273Z,53.00
2023-03-18T13:47:09.141Z,53.50
2023-03-18T13:49:18.994Z,51.70
2023-03-18T13:51:40.599Z,51.20
2023-03-18T13:53:43.959Z,52.20
2023-03-18T13:56:06.028Z,49.20
2023-03-18T13:58:17.593Z,49.20
2023-03-18T14:00:25.273Z,49.10
2023-03-18T14:02:30.082Z,48.40
2023-03-18T14:04:32.913Z,47.70
2023-03-18T14:06:34.608Z,47.60
2023-03-18T14:08:37.376Z,48.70
2023-03-18T14:10:39.020Z,48.10
2023-03-18T14:12:41.537Z,48.40
2023-03-18T14:14:53.753Z,51.20
2023-03-18T14:16:56.263Z,54.00
2023-03-18T14:19:00.358Z,50.20
2023-03-18T14:21:04.479Z,51.70
2023-03-18T14:23:19.473Z,51.40
2023-03-18T14:25:40.833Z,53.00
2023-03-18T14:27:51.192Z,52.30
2023-03-18T14:29:52.954Z,52.80
2023-03-18T14:32:02.641Z,51.90
2023-03-18T14:34:17.919Z,55.90
2023-03-18T14:36:27.208Z,53.10
2023-03-18T14:38:36.283Z,55.20
2023-03-18T14:40:40.832Z,54.20
2023-03-18T14:42:45.940Z,55.00
2023-03-18T14:44:50.270Z,54.70
2023-03-18T14:46:55.575Z,54.80
2023-03-18T14:48:57.274Z,54.50
2023-03-18T14:51:01.224Z,55.60
2023-03-18T14:53:26.633Z,54.60
2023-03-18T14:55:37.486Z,56.80
2023-03-18T14:57:39.522Z,56.30
2023-03-18T14:59:41.476Z,55.80
2023-03-18T15:01:48.034Z,55.40
2023-03-18T15:03:50.569Z,57.30
2023-03-18T15:05:55.652Z,60.10
2023-03-18T15:07:57.255Z,56.70
2023-03-18T15:10:01.272Z,56.40
2023-03-18T15:12:15.841Z,56.60
2023-03-18T15:14:17.463Z,58.60
2023-03-18T15:16:20.013Z,56.70
2023-03-18T15:18:29.371Z,56.50
2023-03-18T15:20:32.837Z,57.10
2023-03-18T15:22:35.556Z,57.80
2023-03-18T15:24:37.713Z,57.30
2023-03-18T15:26:40.399Z,57.80
2023-03-18T15:28:46.531Z,59.50
2023-03-18T15:30:54.288Z,57.40
2023-03-18T15:33:02.720Z,58.00
2023-03-18T15:35:22.199Z,57.70
2023-03-18T15:37:26.319Z,56.30
2023-03-18T15:39:32.211Z,56.50
2023-03-18T15:41:33.951Z,56.00
2023-03-18T15:43:40.195Z,55.20
2023-03-18T15:45:52.912Z,56.40
2023-03-18T15:47:54.923Z,57.00
2023-03-18T15:50:00.628Z,54.20
2023-03-18T15:52:08.416Z,56.00
2023-03-18T15:54:29.768Z,58.20
2023-03-18T15:56:34.345Z,56.30
2023-03-18T15:58:37.703Z,56.90
2023-03-18T16:00:40.935Z,55.60
2023-03-18T16:02:53.794Z,56.30
2023-03-18T16:05:07.819Z,56.10
2023-03-18T16:07:16.134Z,55.50
2023-03-18T16:09:19.033Z,57.40
2023-03-18T16:11:24.134Z,56.00
2023-03-18T16:13:32.164Z,62.20
2023-03-18T16:15:35.545Z,65.60
2023-03-18T16:17:37.916Z,67.20
2023-03-18T16:19:39.893Z,69.70
2023-03-18T16:21:47.532Z,71.10
2023-03-18T16:23:49.185Z,73.50
2023-03-18T16:25:51.987Z,74.50
2023-03-18T16:27:55.593Z,75.80
2023-03-18T16:29:57.370Z,77.20
2023-03-18T16:31:59.563Z,80.10
2023-03-18T16:34:01.181Z,79.90
2023-03-18T16:36:05.645Z,79.60
2023-03-18T16:38:15.403Z,81.70
2023-03-18T16:40:18.417Z,83.80
2023-03-18T16:42:22.775Z,82.90
2023-03-18T16:44:25.940Z,84.50
2023-03-18T16:46:27.953Z,85.10
2023-03-18T16:48:29.804Z,87.80
2023-03-18T16:50:36.660Z,88.10
2023-03-18T16:52:38.798Z,89.20
2023-03-18T16:54:41.220Z,90.00
2023-03-18T16:56:42.953Z,90.70
2023-03-18T16:58:45.387Z,91.70
2023-03-18T17:00:48.518Z,93.10
2023-03-18T17:02:52.581Z,93.90
2023-03-18T17:04:54.265Z,94.30
2023-03-18T17:06:59.861Z,94.60
2023-03-18T17:09:02.292Z,95.80
2023-03-18T17:11:05.347Z,97.40
2023-03-18T17:13:09.509Z,97.70
2023-03-18T17:15:13.385Z,99.70
2023-03-18T17:17:31.439Z,98.40
2023-03-18T17:19:36.592Z,99.90
2023-03-18T17:21:38.450Z,99.90
2023-03-18T17:23:41.869Z,99.90
2023-03-18T17:25:47.187Z,99.90
2023-03-18T17:27:51.420Z,99.90
2023-03-18T17:29:54.049Z,99.90
2023-03-18T17:31:56.550Z,99.90
2023-03-18T17:33:59.380Z,99.90
2023-03-18T17:36:04.488Z,99.90
2023-03-18T17:38:10.117Z,99.90
2023-03-18T17:40:14.314Z,99.90
2023-03-18T17:42:30.374Z,99.90
2023-03-18T17:44:32.411Z,99.90
2023-03-18T17:46:34.492Z,99.90
2023-03-18T17:48:37.154Z,99.90
2023-03-18T17:50:38.788Z,99.90
2023-03-18T17:52:40.455Z,99.90
2023-03-18T17:54:42.589Z,99.90
2023-03-18T17:56:46.110Z,99.90
2023-03-18T17:58:49.310Z,99.90
2023-03-18T18:00:52.434Z,99.90
2023-03-18T18:02:59.379Z,99.90
2023-03-18T18:05:02.261Z,99.90
2023-03-18T18:07:06.182Z,99.90
2023-03-18T18:09:12.632Z,99.90
2023-03-18T18:11:21.964Z,99.90
2023-03-18T18:13:24.617Z,99.90
2023-03-18T18:15:27.757Z,99.90
2023-03-18T18:17:29.336Z,99.90
2023-03-18T18:19:30.934Z,99.90
2023-03-18T18:21:32.653Z,99.90
2023-03-18T18:23:38.337Z,99.90
2023-03-18T18:25:40.706Z,99.90
2023-03-18T18:27:42.452Z,99.90
2023-03-18T18:29:45.820Z,99.90
2023-03-18T18:31:48.215Z,99.90
2023-03-18T18:33:51.045Z,99.90
2023-03-18T18:35:54.074Z,99.90
2023-03-18T18:37:55.691Z,99.90
2023-03-18T18:39:57.379Z,99.90
2023-03-18T18:41:59.070Z,99.90
2023-03-18T18:44:00.947Z,99.90
2023-03-18T18:46:02.599Z,99.90
2023-03-18T18:48:11.289Z,99.90
2023-03-18T18:50:16.748Z,99.90
2023-03-18T18:52:19.097Z,99.90
2023-03-18T18:54:21.265Z,99.90
2023-03-18T18:56:32.043Z,99.90
2023-03-18T18:58:34.686Z,99.90
2023-03-18T19:00:37.249Z,99.90
2023-03-18T19:02:49.156Z,99.90
2023-03-18T19:04:52.667Z,99.90
2023-03-18T19:06:58.937Z,99.90
2023-03-18T19:09:03.447Z,99.90
2023-03-18T19:11:10.043Z,99.90
2023-03-18T19:13:14.686Z,99.90
2023-03-18T19:15:16.501Z,99.90
2023-03-18T19:17:19.839Z,99.90
2023-03-18T19:19:24.228Z,99.90
2023-03-18T19:21:26.578Z,99.90
2023-03-18T19:23:33.733Z,99.90
2023-03-18T19:25:35.835Z,99.90
2023-03-18T19:27:38.594Z,99.90
2023-03-18T19:29:41.402Z,99.90
2023-03-18T19:31:43.018Z,99.90
2023-03-18T19:33:50.673Z,99.90
2023-03-18T19:35:52.480Z,99.90
2023-03-18T19:37:54.319Z,99.90
2023-03-18T19:39:56.572Z,99.90
2023-03-18T19:41:58.254Z,99.90
2023-03-18T19:44:05.720Z,99.90
2023-03-18T19:46:17.051Z,99.90
2023-03-18T19:48:19.936Z,99.90
2023-03-18T19:50:21.949Z,99.90
2023-03-18T19:52:25.366Z,99.90
2023-03-18T19:54:28.703Z,99.90
2023-03-18T19:56:31.428Z,99.90
2023-03-18T19:58:33.104Z,99.90
2023-03-18T20:00:34.728Z,99.90
2023-03-18T20:02:36.355Z,99.90
2023-03-18T20:04:38.115Z,99.90
2023-03-18T20:06:39.852Z,99.90
2023-03-18T20:08:41.595Z,99.90
2023-03-18T20:10:43.726Z,99.90
2023-03-18T20:12:47.358Z,99.90
2023-03-18T20:14:49.334Z,99.90
2023-03-18T20:16:51.595Z,99.90
2023-03-18T20:18:55.561Z,99.90
2023-03-18T20:20:58.686Z,99.90
2023-03-18T20:23:03.630Z,99.90
2023-03-18T20:25:06.703Z,99.90
2023-03-18T20:27:11.794Z,99.90
2023-03-18T20:29:18.031Z,99.90
2023-03-18T20:31:19.893Z,99.90
2023-03-18T20:33:23.245Z,99.90
2023-03-18T20:35:36.828Z,99.90
2023-03-18T20:37:39.063Z,99.90
2023-03-18T20:39:41.613Z,99.90
2023-03-18T20:41:44.223Z,99.90
2023-03-18T20:43:50.415Z,99.90
2023-03-18T20:45:56.079Z,99.90
2023-03-18T20:47:58.505Z,99.90
2023-03-18T20:50:00.625Z,99.90
2023-03-18T20:52:02.758Z,99.90
2023-03-18T21:06:11.560Z,99.90
2023-03-18T21:20:11.094Z,99.90
2023-03-18T21:20:19.364Z,99.90
2023-03-18T21:35:08.559Z,99.90
2023-03-18T21:37:23.972Z,99.90
2023-03-18T21:41:48.070Z,99.90
2023-03-18T21:43:57.329Z,99.90
2023-03-18T21:46:05.587Z,99.90
2023-03-18T21:48:09.699Z,99.90
2023-03-18T21:54:24.722Z,99.90
2023-03-18T21:56:27.341Z,99.90
2023-03-18T21:59:02.526Z,99.90
2023-03-18T22:01:04.858Z,99.90
2023-03-18T22:03:32.659Z,99.90
2023-03-18T22:05:36.152Z,99.90
2023-03-18T22:07:42.657Z,99.90
2023-03-18T22:09:44.822Z,99.90
2023-03-18T22:11:46.913Z,99.90
2023-03-18T22:13:56.995Z,99.90
2023-03-18T22:16:01.336Z,99.90
2023-03-18T22:18:07.967Z,99.90
2023-03-18T22:20:10.707Z,99.90
2023-03-18T22:22:14.179Z,99.90
2023-03-18T22:24:16.852Z,99.90
2023-03-18T22:26:19.392Z,99.90
2023-03-18T22:28:21.720Z,99.90
2023-03-18T22:30:26.504Z,99.90
2023-03-18T22:32:39.222Z,99.90
2023-03-18T22:34:42.845Z,99.90
2023-03-18T22:36:45.548Z,99.90
2023-03-18T22:38:47.570Z,99.90
2023-03-18T22:40:52.445Z,99.90
2023-03-18T22:42:57.579Z,99.90
2023-03-18T22:45:00.064Z,99.90
2023-03-18T22:47:02.774Z,99.90
2023-03-18T22:49:08.293Z,99.90
2023-03-18T22:51:23.564Z,99.90
2023-03-18T22:53:31.105Z,99.90
2023-03-18T22:55:35.770Z,99.90
2023-03-18T22:57:38.470Z,99.90
2023-03-18T22:59:40.489Z,99.90
2023-03-18T23:01:42.460Z,99.90
2023-03-18T23:03:44.857Z,99.90
2023-03-18T23:05:48.866Z,99.90
2023-03-18T23:07:50.985Z,99.90
2023-03-18T23:09:56.979Z,99.90
2023-03-18T23:11:59.243Z,99.90
2023-03-18T23:14:02.043Z,99.90
2023-03-18T23:16:05.956Z,99.90
2023-03-18T23:18:25.180Z,99.90
2023-03-18T23:20:27.160Z,99.90
2023-03-18T23:22:36.786Z,99.90
2023-03-18T23:25:03.026Z,99.90
2023-03-18T23:27:32.311Z,99.90
2023-03-18T23:29:43.610Z,99.90
2023-03-18T23:31:51.745Z,99.90
2023-03-18T23:33:53.386Z,99.90
2023-03-18T23:35:55.169Z,99.90
2023-03-18T23:37:57.003Z,99.90
2023-03-18T23:39:58.660Z,99.90
2023-03-18T23:42:00.586Z,99.90
2023-03-18T23:44:02.826Z,99.90
2023-03-18T23:46:06.269Z,99.90
2023-03-18T23:48:08.610Z,99.90
2023-03-18T23:50:11.844Z,99.90
2023-03-18T23:52:15.027Z,99.90
2023-03-18T23:54:16.698Z,99.90
2023-03-18T23:56:18.498Z,99.90
2023-03-18T23:58:20.143Z,99.90
